sensor_id;sensor_type;location;lat;lon;timestamp;P1;durP1;ratioP1;P2;durP2;ratioP2
4078;SDS011;2054;47.858;11.156;2023-05-07T02:46:46;7.85;;;4.68;;
4078;SDS011;2054;47.858;11.156;2023-05-07T02:49:13;9.48;;;4.80;;
4078;SDS011;2054;47.858;11.156;2023-05-07T02:51:40;5.50;;;5.00;;
4078;SDS011;2054;47.858;11.156;2023-05-07T02:54:07;6.75;;;4.78;;
4078;SDS011;2054;47.858;11.156;2023-05-07T02:56:34;5.97;;;4.78;;
4078;SDS011;2054;47.858;11.156;2023-05-07T02:59:01;14.82;;;5.53;;
4078;SDS011;2054;47.858;11.156;2023-05-07T03:01:29;4.90;;;4.40;;
4078;SDS011;2054;47.858;11.156;2023-05-07T03:03:57;5.55;;;4.97;;
4078;SDS011;2054;47.858;11.156;2023-05-07T03:06:25;5.47;;;4.80;;
4078;SDS011;2054;47.858;11.156;2023-05-07T03:08:52;7.20;;;5.13;;
4078;SDS011;2054;47.858;11.156;2023-05-07T03:11:19;6.03;;;4.97;;
4078;SDS011;2054;47.858;11.156;2023-05-07T03:13:47;6.57;;;5.22;;
4078;SDS011;2054;47.858;11.156;2023-05-07T03:16:15;5.07;;;4.57;;
4078;SDS011;2054;47.858;11.156;2023-05-07T03:18:42;7.90;;;5.22;;
4078;SDS011;2054;47.858;11.156;2023-05-07T03:21:11;7.85;;;5.50;;
4078;SDS011;2054;47.858;11.156;2023-05-07T03:23:38;5.85;;;5.25;;
4078;SDS011;2054;47.858;11.156;2023-05-07T03:26:05;5.90;;;5.22;;
4078;SDS011;2054;47.858;11.156;2023-05-07T03:28:33;6.30;;;5.28;;
4078;SDS011;2054;47.858;11.156;2023-05-07T03:31:00;6.60;;;5.05;;
4078;SDS011;2054;47.858;11.156;2023-05-07T03:33:28;5.25;;;4.43;;
4078;SDS011;2054;47.858;11.156;2023-05-07T03:35:55;6.85;;;4.28;;
4078;SDS011;2054;47.858;11.156;2023-05-07T03:38:24;4.63;;;4.22;;
4078;SDS011;2054;47.858;11.156;2023-05-07T03:40:51;36.38;;;6.07;;
4078;SDS011;2054;47.858;11.156;2023-05-07T03:43:19;4.88;;;4.40;;
4078;SDS011;2054;47.858;11.156;2023-05-07T03:45:46;5.15;;;4.57;;
4078;SDS011;2054;47.858;11.156;2023-05-07T03:48:13;5.45;;;4.70;;
4078;SDS011;2054;47.858;11.156;2023-05-07T03:50:40;35.05;;;16.58;;
4078;SDS011;2054;47.858;11.156;2023-05-07T03:53:07;27.77;;;15.02;;
4078;SDS011;2054;47.858;11.156;2023-05-07T03:55:36;21.40;;;9.65;;
4078;SDS011;2054;47.858;11.156;2023-05-07T03:58:03;20.10;;;10.23;;
4078;SDS011;2054;47.858;11.156;2023-05-07T04:00:30;21.20;;;10.55;;
4078;SDS011;2054;47.858;11.156;2023-05-07T04:03:04;12.48;;;8.35;;
4078;SDS011;2054;47.858;11.156;2023-05-07T04:05:31;8.52;;;6.53;;
4078;SDS011;2054;47.858;11.156;2023-05-07T04:07:59;9.82;;;7.28;;
4078;SDS011;2054;47.858;11.156;2023-05-07T04:10:26;10.00;;;7.30;;
4078;SDS011;2054;47.858;11.156;2023-05-07T04:12:55;10.85;;;7.45;;
4078;SDS011;2054;47.858;11.156;2023-05-07T04:15:23;10.25;;;7.55;;
4078;SDS011;2054;47.858;11.156;2023-05-07T04:17:50;8.57;;;6.65;;
4078;SDS011;2054;47.858;11.156;2023-05-07T04:20:17;12.85;;;8.25;;
4078;SDS011;2054;47.858;11.156;2023-05-07T04:22:45;13.38;;;7.90;;
4078;SDS011;2054;47.858;11.156;2023-05-07T04:25:12;12.88;;;8.82;;
4078;SDS011;2054;47.858;11.156;2023-05-07T04:27:40;11.15;;;8.20;;
4078;SDS011;2054;47.858;11.156;2023-05-07T04:30:11;12.95;;;8.32;;
4078;SDS011;2054;47.858;11.156;2023-05-07T04:32:40;11.88;;;8.60;;
4078;SDS011;2054;47.858;11.156;2023-05-07T04:35:07;11.27;;;8.60;;
4078;SDS011;2054;47.858;11.156;2023-05-07T04:37:34;12.18;;;8.15;;
4078;SDS011;2054;47.858;11.156;2023-05-07T04:40:02;13.55;;;7.85;;
4078;SDS011;2054;47.858;11.156;2023-05-07T04:42:29;17.42;;;10.20;;
4078;SDS011;2054;47.858;11.156;2023-05-07T04:44:56;18.52;;;11.05;;
4078;SDS011;2054;47.858;11.156;2023-05-07T04:47:25;17.48;;;11.27;;
4078;SDS011;2054;47.858;11.156;2023-05-07T04:49:52;20.20;;;13.35;;
4078;SDS011;2054;47.858;11.156;2023-05-07T04:52:19;23.83;;;14.48;;
4078;SDS011;2054;47.858;11.156;2023-05-07T04:54:46;26.77;;;14.98;;
4078;SDS011;2054;47.858;11.156;2023-05-07T04:57:14;19.08;;;12.05;;
4078;SDS011;2054;47.858;11.156;2023-05-07T04:59:42;14.90;;;9.65;;
4078;SDS011;2054;47.858;11.156;2023-05-07T05:02:09;15.63;;;9.52;;
4078;SDS011;2054;47.858;11.156;2023-05-07T05:04:38;13.50;;;8.35;;
4078;SDS011;2054;47.858;11.156;2023-05-07T05:07:05;9.88;;;8.07;;
4078;SDS011;2054;47.858;11.156;2023-05-07T05:09:33;11.80;;;8.07;;
4078;SDS011;2054;47.858;11.156;2023-05-07T05:12:00;9.90;;;7.90;;
4078;SDS011;2054;47.858;11.156;2023-05-07T05:14:27;10.07;;;7.55;;
4078;SDS011;2054;47.858;11.156;2023-05-07T05:16:54;8.70;;;7.45;;
4078;SDS011;2054;47.858;11.156;2023-05-07T05:19:22;7.15;;;6.45;;
4078;SDS011;2054;47.858;11.156;2023-05-07T05:21:50;7.07;;;6.38;;
4078;SDS011;2054;47.858;11.156;2023-05-07T05:24:17;8.63;;;6.72;;
4078;SDS011;2054;47.858;11.156;2023-05-07T05:26:45;10.00;;;6.10;;
4078;SDS011;2054;47.858;11.156;2023-05-07T05:29:12;8.45;;;6.40;;
4078;SDS011;2054;47.858;11.156;2023-05-07T05:31:39;7.70;;;6.28;;
4078;SDS011;2054;47.858;11.156;2023-05-07T05:34:07;8.60;;;6.50;;
4078;SDS011;2054;47.858;11.156;2023-05-07T05:36:34;6.22;;;5.60;;
4078;SDS011;2054;47.858;11.156;2023-05-07T05:39:03;7.00;;;5.88;;
4078;SDS011;2054;47.858;11.156;2023-05-07T05:41:30;8.95;;;5.97;;
4078;SDS011;2054;47.858;11.156;2023-05-07T05:43:58;7.05;;;6.35;;
4078;SDS011;2054;47.858;11.156;2023-05-07T05:46:25;6.65;;;5.97;;
4078;SDS011;2054;47.858;11.156;2023-05-07T05:48:52;6.97;;;6.28;;
4078;SDS011;2054;47.858;11.156;2023-05-07T05:51:20;7.20;;;5.72;;
4078;SDS011;2054;47.858;11.156;2023-05-07T05:53:48;8.23;;;5.85;;
4078;SDS011;2054;47.858;11.156;2023-05-07T05:56:18;7.10;;;6.43;;
4078;SDS011;2054;47.858;11.156;2023-05-07T05:58:46;8.43;;;6.90;;
4078;SDS011;2054;47.858;11.156;2023-05-07T06:01:13;10.15;;;7.03;;
4078;SDS011;2054;47.858;11.156;2023-05-07T06:03:40;9.27;;;6.22;;
4078;SDS011;2054;47.858;11.156;2023-05-07T06:06:08;7.38;;;6.43;;
4078;SDS011;2054;47.858;11.156;2023-05-07T06:08:35;8.88;;;6.53;;
4078;SDS011;2054;47.858;11.156;2023-05-07T06:11:02;7.13;;;6.40;;
4078;SDS011;2054;47.858;11.156;2023-05-07T06:13:31;8.45;;;6.72;;
4078;SDS011;2054;47.858;11.156;2023-05-07T06:15:58;9.55;;;6.93;;
4078;SDS011;2054;47.858;11.156;2023-05-07T06:18:25;8.00;;;6.43;;
4078;SDS011;2054;47.858;11.156;2023-05-07T06:20:52;8.90;;;5.85;;
4078;SDS011;2054;47.858;11.156;2023-05-07T06:23:20;8.57;;;6.60;;
4078;SDS011;2054;47.858;11.156;2023-05-07T06:25:48;7.15;;;6.10;;
4078;SDS011;2054;47.858;11.156;2023-05-07T06:28:15;7.78;;;6.43;;
4078;SDS011;2054;47.858;11.156;2023-05-07T06:30:44;6.75;;;5.97;;
4078;SDS011;2054;47.858;11.156;2023-05-07T06:33:11;7.63;;;6.03;;
4078;SDS011;2054;47.858;11.156;2023-05-07T06:35:38;6.65;;;5.38;;
4078;SDS011;2054;47.858;11.156;2023-05-07T06:38:06;6.13;;;5.18;;
4078;SDS011;2054;47.858;11.156;2023-05-07T06:40:33;5.03;;;4.60;;
4078;SDS011;2054;47.858;11.156;2023-05-07T06:43:00;5.43;;;4.72;;
4078;SDS011;2054;47.858;11.156;2023-05-07T06:45:27;5.22;;;4.72;;
4078;SDS011;2054;47.858;11.156;2023-05-07T06:47:56;5.57;;;5.00;;
4078;SDS011;2054;47.858;11.156;2023-05-07T06:50:24;5.00;;;4.50;;
4078;SDS011;2054;47.858;11.156;2023-05-07T06:52:51;5.18;;;4.25;;
4078;SDS011;2054;47.858;11.156;2023-05-07T06:55:18;4.30;;;3.83;;
4078;SDS011;2054;47.858;11.156;2023-05-07T06:57:45;5.47;;;4.25;;
4078;SDS011;2054;47.858;11.156;2023-05-07T07:00:13;4.45;;;4.05;;
4078;SDS011;2054;47.858;11.156;2023-05-07T07:02:41;6.55;;;4.40;;
4078;SDS011;2054;47.858;11.156;2023-05-07T07:05:10;4.32;;;3.83;;
4078;SDS011;2054;47.858;11.156;2023-05-07T07:07:37;5.75;;;3.95;;
4078;SDS011;2054;47.858;11.156;2023-05-07T07:10:05;4.47;;;4.07;;
4078;SDS011;2054;47.858;11.156;2023-05-07T07:12:32;5.72;;;3.83;;
4078;SDS011;2054;47.858;11.156;2023-05-07T07:15:00;4.93;;;4.35;;
4078;SDS011;2054;47.858;11.156;2023-05-07T07:17:27;4.55;;;4.15;;
4078;SDS011;2054;47.858;11.156;2023-05-07T07:19:54;5.88;;;3.88;;
4078;SDS011;2054;47.858;11.156;2023-05-07T07:22:23;5.45;;;3.85;;
4078;SDS011;2054;47.858;11.156;2023-05-07T07:24:50;4.88;;;3.95;;
4078;SDS011;2054;47.858;11.156;2023-05-07T07:27:17;5.30;;;4.18;;
4078;SDS011;2054;47.858;11.156;2023-05-07T07:29:45;4.03;;;3.60;;
4078;SDS011;2054;47.858;11.156;2023-05-07T07:32:12;5.07;;;4.57;;
4078;SDS011;2054;47.858;11.156;2023-05-07T07:34:39;4.57;;;4.07;;
4078;SDS011;2054;47.858;11.156;2023-05-07T07:37:07;4.80;;;4.18;;
4078;SDS011;2054;47.858;11.156;2023-05-07T07:39:35;5.15;;;4.65;;
4078;SDS011;2054;47.858;11.156;2023-05-07T07:42:03;4.43;;;4.03;;
4078;SDS011;2054;47.858;11.156;2023-05-07T07:44:31;4.47;;;4.07;;
4078;SDS011;2054;47.858;11.156;2023-05-07T07:46:58;5.00;;;3.75;;
4078;SDS011;2054;47.858;11.156;2023-05-07T07:49:25;4.97;;;4.47;;
4078;SDS011;2054;47.858;11.156;2023-05-07T07:51:52;4.80;;;4.00;;
4078;SDS011;2054;47.858;11.156;2023-05-07T07:54:21;5.13;;;3.38;;
4078;SDS011;2054;47.858;11.156;2023-05-07T07:56:50;5.63;;;4.00;;
4078;SDS011;2054;47.858;11.156;2023-05-07T07:59:17;4.22;;;3.80;;
4078;SDS011;2054;47.858;11.156;2023-05-07T08:01:45;4.43;;;3.80;;
4078;SDS011;2054;47.858;11.156;2023-05-07T08:04:13;4.40;;;3.70;;
4078;SDS011;2054;47.858;11.156;2023-05-07T08:06:40;4.13;;;3.72;;
4078;SDS011;2054;47.858;11.156;2023-05-07T08:09:08;3.92;;;3.40;;
4078;SDS011;2054;47.858;11.156;2023-05-07T08:11:35;6.72;;;3.55;;
4078;SDS011;2054;47.858;11.156;2023-05-07T08:14:03;5.90;;;3.80;;
4078;SDS011;2054;47.858;11.156;2023-05-07T08:16:31;4.07;;;3.75;;
4078;SDS011;2054;47.858;11.156;2023-05-07T08:18:58;5.15;;;3.40;;
4078;SDS011;2054;47.858;11.156;2023-05-07T08:21:25;3.45;;;3.17;;
4078;SDS011;2054;47.858;11.156;2023-05-07T08:23:53;3.58;;;3.15;;
4078;SDS011;2054;47.858;11.156;2023-05-07T08:26:20;4.95;;;2.95;;
4078;SDS011;2054;47.858;11.156;2023-05-07T08:28:47;2.90;;;2.70;;
4078;SDS011;2054;47.858;11.156;2023-05-07T08:31:16;3.17;;;2.88;;
4078;SDS011;2054;47.858;11.156;2023-05-07T08:33:43;3.15;;;2.80;;
4078;SDS011;2054;47.858;11.156;2023-05-07T08:36:10;4.13;;;2.88;;
4078;SDS011;2054;47.858;11.156;2023-05-07T08:38:38;5.82;;;2.78;;
4078;SDS011;2054;47.858;11.156;2023-05-07T08:41:09;2.70;;;2.50;;
4078;SDS011;2054;47.858;11.156;2023-05-07T08:43:36;4.22;;;2.33;;
4078;SDS011;2054;47.858;11.156;2023-05-07T08:46:05;2.38;;;2.17;;
4078;SDS011;2054;47.858;11.156;2023-05-07T08:48:34;2.55;;;2.22;;
4078;SDS011;2054;47.858;11.156;2023-05-07T08:51:02;3.60;;;2.50;;
4078;SDS011;2054;47.858;11.156;2023-05-07T08:53:29;2.65;;;2.20;;
4078;SDS011;2054;47.858;11.156;2023-05-07T08:55:57;2.97;;;2.70;;
4078;SDS011;2054;47.858;11.156;2023-05-07T08:58:24;3.10;;;2.15;;
4078;SDS011;2054;47.858;11.156;2023-05-07T09:00:52;3.40;;;2.20;;
4078;SDS011;2054;47.858;11.156;2023-05-07T09:03:19;2.47;;;1.88;;
4078;SDS011;2054;47.858;11.156;2023-05-07T09:05:48;2.95;;;2.00;;
4078;SDS011;2054;47.858;11.156;2023-05-07T09:08:15;3.05;;;2.28;;
4078;SDS011;2054;47.858;11.156;2023-05-07T09:10:42;5.30;;;2.42;;
4078;SDS011;2054;47.858;11.156;2023-05-07T09:13:11;3.78;;;1.98;;
4078;SDS011;2054;47.858;11.156;2023-05-07T09:15:39;2.92;;;2.00;;
4078;SDS011;2054;47.858;11.156;2023-05-07T09:18:06;5.80;;;2.17;;
4078;SDS011;2054;47.858;11.156;2023-05-07T09:20:33;2.17;;;1.70;;
4078;SDS011;2054;47.858;11.156;2023-05-07T09:23:07;2.83;;;2.28;;
4078;SDS011;2054;47.858;11.156;2023-05-07T09:25:35;3.78;;;2.40;;
4078;SDS011;2054;47.858;11.156;2023-05-07T09:28:03;2.22;;;1.75;;
4078;SDS011;2054;47.858;11.156;2023-05-07T09:30:31;2.00;;;1.80;;
4078;SDS011;2054;47.858;11.156;2023-05-07T09:32:59;4.30;;;2.00;;
4078;SDS011;2054;47.858;11.156;2023-05-07T09:35:27;2.25;;;2.05;;
4078;SDS011;2054;47.858;11.156;2023-05-07T09:37:55;2.67;;;2.20;;
4078;SDS011;2054;47.858;11.156;2023-05-07T09:40:25;1.77;;;1.67;;
4078;SDS011;2054;47.858;11.156;2023-05-07T09:42:53;6.20;;;2.13;;
4078;SDS011;2054;47.858;11.156;2023-05-07T09:45:24;3.47;;;2.00;;
4078;SDS011;2054;47.858;11.156;2023-05-07T09:47:53;4.18;;;2.00;;
4078;SDS011;2054;47.858;11.156;2023-05-07T09:50:22;3.95;;;2.15;;
4078;SDS011;2054;47.858;11.156;2023-05-07T09:52:51;2.88;;;2.00;;
4078;SDS011;2054;47.858;11.156;2023-05-07T09:55:19;1.85;;;1.75;;
4078;SDS011;2054;47.858;11.156;2023-05-07T09:57:48;2.75;;;2.10;;
4078;SDS011;2054;47.858;11.156;2023-05-07T10:00:17;2.35;;;2.15;;
4078;SDS011;2054;47.858;11.156;2023-05-07T10:02:46;3.25;;;1.90;;
4078;SDS011;2054;47.858;11.156;2023-05-07T10:05:14;2.15;;;1.83;;
4078;SDS011;2054;47.858;11.156;2023-05-07T10:07:41;2.17;;;1.98;;
4078;SDS011;2054;47.858;11.156;2023-05-07T10:10:10;2.40;;;1.92;;
4078;SDS011;2054;47.858;11.156;2023-05-07T10:12:38;3.33;;;1.90;;
4078;SDS011;2054;47.858;11.156;2023-05-07T10:15:08;2.33;;;1.90;;
4078;SDS011;2054;47.858;11.156;2023-05-07T10:17:36;2.20;;;2.10;;
4078;SDS011;2054;47.858;11.156;2023-05-07T10:20:07;5.05;;;2.30;;
4078;SDS011;2054;47.858;11.156;2023-05-07T10:22:37;2.65;;;2.10;;
4078;SDS011;2054;47.858;11.156;2023-05-07T10:25:05;2.33;;;2.13;;
4078;SDS011;2054;47.858;11.156;2023-05-07T10:27:33;3.03;;;2.00;;
4078;SDS011;2054;47.858;11.156;2023-05-07T10:30:04;2.08;;;1.65;;
4078;SDS011;2054;47.858;11.156;2023-05-07T10:32:37;2.28;;;1.80;;
4078;SDS011;2054;47.858;11.156;2023-05-07T10:35:06;3.88;;;1.73;;
4078;SDS011;2054;47.858;11.156;2023-05-07T10:37:36;2.88;;;1.55;;
4078;SDS011;2054;47.858;11.156;2023-05-07T10:40:04;2.08;;;1.88;;
4078;SDS011;2054;47.858;11.156;2023-05-07T10:42:32;3.63;;;2.00;;
4078;SDS011;2054;47.858;11.156;2023-05-07T10:45:11;3.40;;;1.92;;
4078;SDS011;2054;47.858;11.156;2023-05-07T10:50:23;3.90;;;2.20;;
4078;SDS011;2054;47.858;11.156;2023-05-07T10:55:36;2.70;;;1.80;;
4078;SDS011;2054;47.858;11.156;2023-05-07T10:58:22;3.47;;;1.85;;
4078;SDS011;2054;47.858;11.156;2023-05-07T11:00:50;3.70;;;2.83;;
4078;SDS011;2054;47.858;11.156;2023-05-07T11:03:17;5.10;;;2.50;;
4078;SDS011;2054;47.858;11.156;2023-05-07T11:05:48;2.58;;;2.35;;
4078;SDS011;2054;47.858;11.156;2023-05-07T11:08:53;2.03;;;1.92;;
4078;SDS011;2054;47.858;11.156;2023-05-07T11:14:03;2.55;;;1.70;;
4078;SDS011;2054;47.858;11.156;2023-05-07T11:16:30;1.80;;;1.70;;
4078;SDS011;2054;47.858;11.156;2023-05-07T11:18:58;2.85;;;1.90;;
4078;SDS011;2054;47.858;11.156;2023-05-07T11:21:34;2.85;;;1.90;;
4078;SDS011;2054;47.858;11.156;2023-05-07T11:24:03;2.22;;;1.88;;
4078;SDS011;2054;47.858;11.156;2023-05-07T11:26:42;2.70;;;1.65;;
4078;SDS011;2054;47.858;11.156;2023-05-07T11:29:11;1.92;;;1.75;;
4078;SDS011;2054;47.858;11.156;2023-05-07T11:31:38;1.65;;;1.55;;
4078;SDS011;2054;47.858;11.156;2023-05-07T11:34:06;2.10;;;1.90;;
4078;SDS011;2054;47.858;11.156;2023-05-07T11:36:41;2.22;;;1.83;;
4078;SDS011;2054;47.858;11.156;2023-05-07T11:39:27;2.15;;;1.95;;
4078;SDS011;2054;47.858;11.156;2023-05-07T11:41:54;2.78;;;1.77;;
4078;SDS011;2054;47.858;11.156;2023-05-07T11:44:22;4.78;;;1.88;;
4078;SDS011;2054;47.858;11.156;2023-05-07T11:46:49;2.65;;;1.65;;
4078;SDS011;2054;47.858;11.156;2023-05-07T11:49:16;3.70;;;2.08;;
4078;SDS011;2054;47.858;11.156;2023-05-07T11:51:46;2.10;;;1.88;;
4078;SDS011;2054;47.858;11.156;2023-05-07T11:54:15;1.98;;;1.70;;
4078;SDS011;2054;47.858;11.156;2023-05-07T11:56:43;4.53;;;1.90;;
4078;SDS011;2054;47.858;11.156;2023-05-07T11:59:16;1.85;;;1.70;;
4078;SDS011;2054;47.858;11.156;2023-05-07T12:01:45;4.35;;;2.10;;
4078;SDS011;2054;47.858;11.156;2023-05-07T12:04:13;2.50;;;1.90;;
4078;SDS011;2054;47.858;11.156;2023-05-07T12:06:40;2.78;;;1.98;;
4078;SDS011;2054;47.858;11.156;2023-05-07T12:09:08;2.10;;;1.90;;
4078;SDS011;2054;47.858;11.156;2023-05-07T12:11:36;2.03;;;1.92;;
4078;SDS011;2054;47.858;11.156;2023-05-07T12:14:05;2.78;;;1.70;;
4078;SDS011;2054;47.858;11.156;2023-05-07T12:16:33;4.10;;;1.98;;
4078;SDS011;2054;47.858;11.156;2023-05-07T12:19:00;4.07;;;1.80;;
4078;SDS011;2054;47.858;11.156;2023-05-07T12:21:28;1.85;;;1.73;;
4078;SDS011;2054;47.858;11.156;2023-05-07T12:23:55;2.30;;;2.10;;
4078;SDS011;2054;47.858;11.156;2023-05-07T12:26:25;2.20;;;2.00;;
4078;SDS011;2054;47.858;11.156;2023-05-07T12:28:52;3.42;;;1.75;;
4078;SDS011;2054;47.858;11.156;2023-05-07T12:31:20;2.72;;;1.63;;
4078;SDS011;2054;47.858;11.156;2023-05-07T12:33:47;2.17;;;1.80;;
4078;SDS011;2054;47.858;11.156;2023-05-07T12:36:14;2.72;;;1.77;;
4078;SDS011;2054;47.858;11.156;2023-05-07T12:38:42;1.70;;;1.60;;
4078;SDS011;2054;47.858;11.156;2023-05-07T12:41:09;2.63;;;1.83;;
4078;SDS011;2054;47.858;11.156;2023-05-07T12:43:39;3.47;;;1.90;;
4078;SDS011;2054;47.858;11.156;2023-05-07T12:46:06;4.32;;;1.73;;
4078;SDS011;2054;47.858;11.156;2023-05-07T12:48:35;2.13;;;1.77;;
4078;SDS011;2054;47.858;11.156;2023-05-07T12:51:03;2.28;;;1.90;;
4078;SDS011;2054;47.858;11.156;2023-05-07T12:53:32;3.25;;;1.83;;
4078;SDS011;2054;47.858;11.156;2023-05-07T12:56:01;1.98;;;1.88;;
4078;SDS011;2054;47.858;11.156;2023-05-07T12:58:30;3.20;;;1.60;;
4078;SDS011;2054;47.858;11.156;2023-05-07T13:00:59;2.58;;;1.85;;
4078;SDS011;2054;47.858;11.156;2023-05-07T13:03:27;2.00;;;1.60;;
4078;SDS011;2054;47.858;11.156;2023-05-07T13:05:55;4.13;;;2.13;;
4078;SDS011;2054;47.858;11.156;2023-05-07T13:08:23;2.38;;;1.83;;
4078;SDS011;2054;47.858;11.156;2023-05-07T13:10:51;3.28;;;1.80;;
4078;SDS011;2054;47.858;11.156;2023-05-07T13:13:18;2.10;;;1.90;;
4078;SDS011;2054;47.858;11.156;2023-05-07T13:15:46;3.10;;;2.00;;
4078;SDS011;2054;47.858;11.156;2023-05-07T13:18:15;3.10;;;1.80;;
4078;SDS011;2054;47.858;11.156;2023-05-07T13:20:42;2.55;;;2.20;;
4078;SDS011;2054;47.858;11.156;2023-05-07T13:23:09;2.97;;;1.90;;
4078;SDS011;2054;47.858;11.156;2023-05-07T13:25:37;2.55;;;1.90;;
4078;SDS011;2054;47.858;11.156;2023-05-07T13:28:04;2.03;;;1.75;;
4078;SDS011;2054;47.858;11.156;2023-05-07T13:30:31;3.75;;;1.83;;
4078;SDS011;2054;47.858;11.156;2023-05-07T13:32:58;2.08;;;1.88;;
4078;SDS011;2054;47.858;11.156;2023-05-07T13:35:27;3.58;;;1.83;;
4078;SDS011;2054;47.858;11.156;2023-05-07T13:37:54;2.83;;;1.80;;
4078;SDS011;2054;47.858;11.156;2023-05-07T13:40:22;2.20;;;2.00;;
4078;SDS011;2054;47.858;11.156;2023-05-07T13:42:49;6.72;;;4.60;;
4078;SDS011;2054;47.858;11.156;2023-05-07T13:45:17;8.77;;;6.35;;
4078;SDS011;2054;47.858;11.156;2023-05-07T13:47:44;5.22;;;3.22;;
4078;SDS011;2054;47.858;11.156;2023-05-07T13:50:14;2.30;;;2.10;;
4078;SDS011;2054;47.858;11.156;2023-05-07T13:52:43;3.50;;;2.00;;
4078;SDS011;2054;47.858;11.156;2023-05-07T13:55:15;3.53;;;1.98;;
4078;SDS011;2054;47.858;11.156;2023-05-07T13:57:42;4.43;;;2.13;;
4078;SDS011;2054;47.858;11.156;2023-05-07T14:00:10;2.10;;;1.90;;
4078;SDS011;2054;47.858;11.156;2023-05-07T14:02:38;2.83;;;2.20;;
4078;SDS011;2054;47.858;11.156;2023-05-07T14:05:05;2.75;;;2.25;;
4078;SDS011;2054;47.858;11.156;2023-05-07T14:07:32;2.97;;;2.67;;
4078;SDS011;2054;47.858;11.156;2023-05-07T14:10:02;6.10;;;4.00;;
4078;SDS011;2054;47.858;11.156;2023-05-07T14:12:29;4.68;;;3.13;;
4078;SDS011;2054;47.858;11.156;2023-05-07T14:14:57;7.82;;;5.53;;
4078;SDS011;2054;47.858;11.156;2023-05-07T14:17:24;3.20;;;2.80;;
4078;SDS011;2054;47.858;11.156;2023-05-07T14:19:52;5.60;;;2.75;;
4078;SDS011;2054;47.858;11.156;2023-05-07T14:22:19;3.38;;;2.60;;
4078;SDS011;2054;47.858;11.156;2023-05-07T14:24:47;6.93;;;3.03;;
4078;SDS011;2054;47.858;11.156;2023-05-07T14:27:16;4.78;;;3.58;;
4078;SDS011;2054;47.858;11.156;2023-05-07T14:29:43;2.90;;;2.60;;
4078;SDS011;2054;47.858;11.156;2023-05-07T14:32:15;3.50;;;2.45;;
4078;SDS011;2054;47.858;11.156;2023-05-07T14:34:43;3.85;;;2.80;;
4078;SDS011;2054;47.858;11.156;2023-05-07T14:37:10;3.88;;;2.88;;
4078;SDS011;2054;47.858;11.156;2023-05-07T14:39:37;4.20;;;2.45;;
4078;SDS011;2054;47.858;11.156;2023-05-07T14:42:05;3.33;;;2.80;;
4078;SDS011;2054;47.858;11.156;2023-05-07T14:44:35;2.65;;;2.45;;
4078;SDS011;2054;47.858;11.156;2023-05-07T14:47:02;5.53;;;2.33;;
4078;SDS011;2054;47.858;11.156;2023-05-07T14:49:29;2.70;;;2.50;;
4078;SDS011;2054;47.858;11.156;2023-05-07T14:51:57;3.00;;;2.30;;
4078;SDS011;2054;47.858;11.156;2023-05-07T14:54:25;3.45;;;2.22;;
4078;SDS011;2054;47.858;11.156;2023-05-07T14:56:53;4.78;;;3.42;;
4078;SDS011;2054;47.858;11.156;2023-05-07T14:59:20;3.50;;;1.85;;
4078;SDS011;2054;47.858;11.156;2023-05-07T15:01:51;2.25;;;2.05;;
4078;SDS011;2054;47.858;11.156;2023-05-07T15:04:19;10.88;;;2.97;;
4078;SDS011;2054;47.858;11.156;2023-05-07T15:06:47;1.77;;;1.67;;
4078;SDS011;2054;47.858;11.156;2023-05-07T15:09:14;3.22;;;1.60;;
4078;SDS011;2054;47.858;11.156;2023-05-07T15:11:41;3.90;;;2.55;;
4078;SDS011;2054;47.858;11.156;2023-05-07T15:14:08;2.85;;;1.70;;
4078;SDS011;2054;47.858;11.156;2023-05-07T15:16:36;2.85;;;1.40;;
4078;SDS011;2054;47.858;11.156;2023-05-07T15:19:04;1.65;;;1.45;;
4078;SDS011;2054;47.858;11.156;2023-05-07T15:21:31;1.65;;;1.50;;
4078;SDS011;2054;47.858;11.156;2023-05-07T15:23:59;1.70;;;1.55;;
4078;SDS011;2054;47.858;11.156;2023-05-07T15:26:27;3.90;;;1.65;;
4078;SDS011;2054;47.858;11.156;2023-05-07T15:28:55;1.50;;;1.40;;
4078;SDS011;2054;47.858;11.156;2023-05-07T15:31:22;1.60;;;1.50;;
4078;SDS011;2054;47.858;11.156;2023-05-07T15:33:50;1.63;;;1.35;;
4078;SDS011;2054;47.858;11.156;2023-05-07T15:36:19;2.85;;;1.67;;
4078;SDS011;2054;47.858;11.156;2023-05-07T15:38:46;3.72;;;1.63;;
4078;SDS011;2054;47.858;11.156;2023-05-07T15:41:13;2.00;;;1.40;;
4078;SDS011;2054;47.858;11.156;2023-05-07T15:43:43;1.73;;;1.58;;
4078;SDS011;2054;47.858;11.156;2023-05-07T15:46:11;1.60;;;1.50;;
4078;SDS011;2054;47.858;11.156;2023-05-07T15:48:39;1.58;;;1.05;;
4078;SDS011;2054;47.858;11.156;2023-05-07T15:51:06;1.50;;;1.40;;
4078;SDS011;2054;47.858;11.156;2023-05-07T15:53:36;1.35;;;1.25;;
4078;SDS011;2054;47.858;11.156;2023-05-07T15:56:04;2.75;;;1.30;;
4078;SDS011;2054;47.858;11.156;2023-05-07T15:58:31;2.53;;;2.03;;
4078;SDS011;2054;47.858;11.156;2023-05-07T16:00:58;2.67;;;1.52;;
4078;SDS011;2054;47.858;11.156;2023-05-07T16:03:26;1.80;;;1.70;;
4078;SDS011;2054;47.858;11.156;2023-05-07T16:05:53;1.33;;;1.20;;
4078;SDS011;2054;47.858;11.156;2023-05-07T16:08:21;1.88;;;1.13;;
4078;SDS011;2054;47.858;11.156;2023-05-07T16:10:50;3.00;;;1.52;;
4078;SDS011;2054;47.858;11.156;2023-05-07T16:13:17;2.28;;;1.85;;
4078;SDS011;2054;47.858;11.156;2023-05-07T16:15:45;2.33;;;1.60;;
4078;SDS011;2054;47.858;11.156;2023-05-07T16:18:13;1.70;;;1.60;;
4078;SDS011;2054;47.858;11.156;2023-05-07T16:20:40;1.85;;;1.30;;
4078;SDS011;2054;47.858;11.156;2023-05-07T16:23:08;10.10;;;1.48;;
4078;SDS011;2054;47.858;11.156;2023-05-07T16:25:37;1.38;;;1.17;;
4078;SDS011;2054;47.858;11.156;2023-05-07T16:28:06;4.50;;;2.60;;
4078;SDS011;2054;47.858;11.156;2023-05-07T16:30:33;1.40;;;1.20;;
4078;SDS011;2054;47.858;11.156;2023-05-07T16:33:00;1.30;;;1.02;;
4078;SDS011;2054;47.858;11.156;2023-05-07T16:35:27;3.63;;;1.60;;
4078;SDS011;2054;47.858;11.156;2023-05-07T16:37:55;2.45;;;1.20;;
4078;SDS011;2054;47.858;11.156;2023-05-07T16:40:22;1.40;;;1.05;;
4078;SDS011;2054;47.858;11.156;2023-05-07T16:42:49;2.88;;;1.45;;
4078;SDS011;2054;47.858;11.156;2023-05-07T16:45:18;2.55;;;1.30;;
4078;SDS011;2054;47.858;11.156;2023-05-07T16:47:47;3.45;;;1.25;;
4078;SDS011;2054;47.858;11.156;2023-05-07T16:50:14;2.03;;;1.45;;
4078;SDS011;2054;47.858;11.156;2023-05-07T16:52:41;4.60;;;1.10;;
4078;SDS011;2054;47.858;11.156;2023-05-07T16:55:09;2.72;;;1.30;;
4078;SDS011;2054;47.858;11.156;2023-05-07T16:57:36;1.92;;;1.27;;
4078;SDS011;2054;47.858;11.156;2023-05-07T17:00:04;1.33;;;1.23;;
4078;SDS011;2054;47.858;11.156;2023-05-07T17:02:33;1.60;;;1.40;;
4078;SDS011;2054;47.858;11.156;2023-05-07T17:05:00;2.25;;;1.50;;
4078;SDS011;2054;47.858;11.156;2023-05-07T17:07:30;3.22;;;1.33;;
4078;SDS011;2054;47.858;11.156;2023-05-07T17:09:57;1.58;;;1.48;;
4078;SDS011;2054;47.858;11.156;2023-05-07T17:12:25;1.83;;;1.15;;
4078;SDS011;2054;47.858;11.156;2023-05-07T17:14:53;3.40;;;1.27;;
4078;SDS011;2054;47.858;11.156;2023-05-07T17:17:20;2.30;;;1.30;;
4078;SDS011;2054;47.858;11.156;2023-05-07T17:19:49;2.35;;;1.35;;
4078;SDS011;2054;47.858;11.156;2023-05-07T17:22:16;1.63;;;1.30;;
4078;SDS011;2054;47.858;11.156;2023-05-07T17:24:43;1.58;;;1.48;;
4078;SDS011;2054;47.858;11.156;2023-05-07T17:27:13;2.70;;;1.33;;
4078;SDS011;2054;47.858;11.156;2023-05-07T17:29:40;1.60;;;1.50;;
4078;SDS011;2054;47.858;11.156;2023-05-07T17:32:08;1.80;;;1.30;;
4078;SDS011;2054;47.858;11.156;2023-05-07T17:34:36;1.50;;;1.40;;
4078;SDS011;2054;47.858;11.156;2023-05-07T17:37:05;5.10;;;1.70;;
4078;SDS011;2054;47.858;11.156;2023-05-07T17:39:32;2.00;;;1.70;;
4078;SDS011;2054;47.858;11.156;2023-05-07T17:41:59;3.92;;;1.73;;
4078;SDS011;2054;47.858;11.156;2023-05-07T17:44:26;3.20;;;1.60;;
4078;SDS011;2054;47.858;11.156;2023-05-07T17:46:54;1.92;;;1.70;;
4078;SDS011;2054;47.858;11.156;2023-05-07T17:49:21;2.50;;;1.75;;
4078;SDS011;2054;47.858;11.156;2023-05-07T17:51:48;1.73;;;1.63;;
4078;SDS011;2054;47.858;11.156;2023-05-07T17:54:17;3.38;;;1.45;;
4078;SDS011;2054;47.858;11.156;2023-05-07T17:56:45;3.15;;;1.70;;
4078;SDS011;2054;47.858;11.156;2023-05-07T17:59:12;1.50;;;1.40;;